Lenora, Kansas
Current Conditions -  °F | °C
As of 3:53 PM on Thursday 23 Oct 2014 (Local Time) from KHLC Reporting Station
Clear Clear  
Wind Chill: 73°   Ceiling: Unl
Heat Index: 73°   Visibility: 10mi
Dew Point: 54°   Wind: 8mph
Humidity: 51%   Direction: 170°S
Pressure: 30.04"   Gusts: NA
Location:  39.61°N, 100°W
Report Text: KHLC 232053Z AUTO 17007KT 10SM CLR 23/12 A3004 RMK AO2 SLP157 T02280122 58018
Loading
Personal Weather Stations






























Interactive Weather Map New forecast layout! Learn more

10-Day Weather Forecast

Advertisements
Track Severe Weather on mobile